Time;durP1;ratioP1;P1;durP2;ratioP2;P2;SDS_P1;SDS_P2;PMS_P1;PMS_P2;Temp;Humidity;BMP_temperature;BMP_pressure;BME280_temperature;BME280_humidity;BME280_pressure;Samples;Min_cycle;Max_cycle;Signal;HPM_P1;HPM_P2
2023/07/12 00:01:12;;;;;;;9.30;2.20;;;;;;;23.25;70.51;100624.47;4992142;28;20058;-60
2023/07/12 00:03:39;;;;;;;10.98;2.33;;;;;;;23.36;70.59;100627.31;4990811;28;20065;-61
2023/07/12 00:06:37;;;;;;;8.57;2.50;;;;;;;23.43;69.90;100630.13;4995516;28;20058;-62
2023/07/12 00:09:10;;;;;;;5.47;2.05;;;;;;;23.81;68.64;100629.25;5024745;28;20054;-61
2023/07/12 00:11:37;;;;;;;5.65;2.20;;;;;;;23.58;68.31;100623.25;4990719;28;20057;-61
2023/07/12 00:14:05;;;;;;;7.15;2.05;;;;;;;23.36;69.86;100633.72;4976961;28;20054;-61
2023/07/12 00:16:35;;;;;;;7.70;2.38;;;;;;;23.11;70.59;100643.31;4992090;28;20050;-62
2023/07/12 00:19:04;;;;;;;6.32;2.30;;;;;;;23.01;71.09;100641.28;5012108;28;20507;-60
2023/07/12 00:21:32;;;;;;;7.10;2.00;;;;;;;23.01;71.14;100639.25;5010145;28;20053;-61
2023/07/12 00:24:01;;;;;;;5.63;2.08;;;;;;;22.80;72.24;100641.25;5008693;28;20073;-61
2023/07/12 00:26:28;;;;;;;7.50;2.17;;;;;;;22.62;73.25;100652.44;5018678;28;20041;-61
2023/07/12 00:28:57;;;;;;;6.60;2.10;;;;;;;22.52;73.76;100643.94;5042798;28;20045;-61
2023/07/12 00:31:25;;;;;;;7.30;2.67;;;;;;;22.52;73.61;100641.13;5003195;28;20061;-60
2023/07/12 00:33:53;;;;;;;5.30;2.00;;;;;;;22.52;73.51;100644.75;5026776;28;20056;-62
2023/07/12 00:36:24;;;;;;;5.00;2.20;;;;;;;22.64;73.21;100644.41;5001205;28;20046;-61
2023/07/12 00:38:52;;;;;;;6.85;2.33;;;;;;;23.21;71.12;100642.50;4973381;28;20061;-60
2023/07/12 00:41:54;;;;;;;6.45;2.25;;;;;;;23.59;68.87;100638.91;4990701;28;20425;-62
2023/07/12 00:44:25;;;;;;;6.13;1.88;;;;;;;23.38;68.70;100650.97;4973072;28;20059;-60
2023/07/12 00:46:55;;;;;;;5.43;1.60;;;;;;;23.71;68.07;100644.13;4991609;28;20051;-60
2023/07/12 00:49:24;;;;;;;7.70;2.10;;;;;;;23.76;67.60;100640.94;4989878;28;20055;-60
2023/07/12 00:52:05;;;;;;;8.02;1.88;;;;;;;23.82;66.61;100653.38;4975745;28;20042;-61
2023/07/12 00:54:49;;;;;;;8.55;1.88;;;;;;;23.46;68.24;100651.78;4959539;28;20469;-62
2023/07/12 00:57:17;;;;;;;8.05;2.17;;;;;;;23.60;67.49;100663.03;5001785;28;20421;-60
2023/07/12 00:59:44;;;;;;;4.88;2.00;;;;;;;23.97;66.26;100660.56;4991586;28;20050;-60
2023/07/12 01:02:13;;;;;;;7.20;1.95;;;;;;;23.91;65.89;100656.56;4992976;28;20050;-61
2023/07/12 01:04:46;;;;;;;5.82;2.05;;;;;;;23.61;66.71;100655.38;5054531;28;20047;-61
2023/07/12 01:07:15;;;;;;;7.07;1.98;;;;;;;23.82;66.29;100659.00;5112436;28;20045;-60
2023/07/12 01:09:43;;;;;;;9.27;2.13;;;;;;;23.42;67.72;100648.97;5025488;28;20072;-61
2023/07/12 01:12:11;;;;;;;5.53;1.80;;;;;;;23.70;67.15;100655.78;5022558;28;20049;-60
2023/07/12 01:14:40;;;;;;;7.47;2.20;;;;;;;23.18;68.78;100671.41;5006052;28;20054;-60
2023/07/12 01:17:08;;;;;;;5.75;1.98;;;;;;;23.23;69.33;100674.66;4996492;28;20046;-60
2023/07/12 01:19:38;;;;;;;6.68;2.33;;;;;;;23.03;69.55;100678.22;5009655;28;20053;-60
2023/07/12 01:22:06;;;;;;;4.88;1.55;;;;;;;23.04;68.59;100675.00;5010121;28;20058;-62
2023/07/12 01:24:34;;;;;;;5.85;1.88;;;;;;;22.44;70.01;100670.38;5008943;28;20061;-61
2023/07/12 01:27:19;;;;;;;4.25;1.50;;;;;;;21.82;72.51;100676.03;4994766;28;20038;-61
2023/07/12 01:29:48;;;;;;;3.72;1.50;;;;;;;21.86;72.19;100679.66;5009983;28;20420;-61
2023/07/12 01:32:17;;;;;;;4.45;2.00;;;;;;;21.93;71.86;100684.53;5009095;28;20060;-61
2023/07/12 01:34:45;;;;;;;6.22;1.67;;;;;;;21.88;70.33;100679.28;5010473;28;20050;-60
2023/07/12 01:37:13;;;;;;;6.20;1.60;;;;;;;21.93;70.33;100676.91;5005139;28;20057;-60
2023/07/12 01:39:41;;;;;;;6.15;1.48;;;;;;;22.06;69.34;100680.19;5010148;28;20050;-61
2023/07/12 01:42:11;;;;;;;4.15;1.48;;;;;;;22.05;68.37;100681.41;4990509;28;20061;-61
2023/07/12 01:44:38;;;;;;;2.58;1.40;;;;;;;22.06;68.54;100683.00;4989090;28;20070;-61
2023/07/12 01:47:06;;;;;;;4.25;1.40;;;;;;;22.06;68.87;100674.56;4989297;28;20385;-61
2023/07/12 01:49:33;;;;;;;4.22;1.50;;;;;;;21.95;69.08;100682.16;4992654;28;20061;-61
2023/07/12 01:52:01;;;;;;;3.70;1.42;;;;;;;21.74;69.16;100684.75;5005313;28;20511;-62
2023/07/12 01:54:30;;;;;;;4.28;1.60;;;;;;;21.33;71.61;100689.63;4989196;28;20508;-60
2023/07/12 01:56:58;;;;;;;3.55;1.33;;;;;;;21.05;72.52;100692.13;5003761;28;20054;-60
2023/07/12 01:59:25;;;;;;;3.22;1.17;;;;;;;20.93;73.02;100692.38;5004686;28;20445;-60
2023/07/12 02:01:56;;;;;;;3.45;1.30;;;;;;;20.66;74.47;100688.09;5003378;28;20054;-61
2023/07/12 02:04:23;;;;;;;3.42;1.42;;;;;;;20.27;76.24;100700.75;5012848;28;20046;-60
2023/07/12 02:06:50;;;;;;;5.72;1.45;;;;;;;20.31;76.50;100694.00;4993912;28;20042;-60
2023/07/12 02:09:18;;;;;;;3.05;1.23;;;;;;;20.77;74.76;100705.78;5019512;28;20713;-61
2023/07/12 02:20:43;;;;;;;4.70;1.20;;;;;;;20.81;74.01;100710.25;4993767;28;20058;-68
2023/07/12 02:23:29;;;;;;;5.15;1.88;;;;;;;21.39;71.88;100716.09;4993002;28;20053;-68
2023/07/12 02:25:56;;;;;;;2.42;1.08;;;;;;;21.25;70.55;100713.16;5025786;28;20057;-69
2023/07/12 02:28:24;;;;;;;3.45;1.20;;;;;;;21.36;70.88;100725.25;5013269;28;20042;-68
2023/07/12 02:30:51;;;;;;;1.67;0.68;;;;;;;21.55;68.53;100716.63;5011941;28;20523;-70
2023/07/12 02:33:19;;;;;;;1.92;0.70;;;;;;;21.61;68.69;100714.28;5013517;28;20528;-69
2023/07/12 02:35:46;;;;;;;1.50;0.60;;;;;;;;;;5008160;28;20054;-69
2023/07/12 02:38:13;;;;;;;2.28;0.63;;;;;;;21.69;67.78;100721.59;4993340;28;20057;-69
2023/07/12 02:40:40;;;;;;;1.90;0.80;;;;;;;21.32;69.56;100723.63;4993820;28;20054;-70
2023/07/12 02:43:08;;;;;;;4.10;1.00;;;;;;;20.91;71.41;100725.56;4993637;28;20485;-68
2023/07/12 02:45:35;;;;;;;1.98;0.70;;;;;;;20.60;73.13;100731.56;4993589;28;20053;-68
2023/07/12 02:48:03;;;;;;;2.85;0.85;;;;;;;20.56;73.14;100734.34;4993167;28;20410;-69
2023/07/12 02:50:31;;;;;;;6.00;0.80;;;;;;;20.13;75.42;100746.91;4997326;28;20061;-69
2023/07/12 02:52:58;;;;;;;2.67;0.70;;;;;;;20.09;75.73;100746.03;5013136;28;20050;-68
2023/07/12 02:55:26;;;;;;;2.92;0.88;;;;;;;20.11;75.71;100756.84;5011340;28;20090;-68
2023/07/12 02:57:53;;;;;;;2.55;0.90;;;;;;;20.33;76.02;100739.19;5012671;28;20046;-69
2023/07/12 03:00:21;;;;;;;1.80;0.60;;;;;;;20.71;73.69;100749.31;5012859;28;20053;-68
2023/07/12 03:02:48;;;;;;;1.15;0.50;;;;;;;20.87;72.83;100753.53;5013135;28;20069;-68
2023/07/12 03:05:15;;;;;;;4.43;0.80;;;;;;;20.87;71.61;100753.53;5012479;28;20057;-68
2023/07/12 03:07:43;;;;;;;3.40;0.88;;;;;;;20.68;72.78;100755.66;5011321;28;20049;-68
2023/07/12 03:10:10;;;;;;;2.22;0.90;;;;;;;20.64;73.45;100750.03;5021003;28;20057;-69
2023/07/12 03:12:37;;;;;;;1.73;0.55;;;;;;;20.62;73.68;100751.59;5026051;28;20512;-69
2023/07/12 03:15:05;;;;;;;2.15;0.70;;;;;;;20.20;75.34;100759.41;5032751;28;20066;-70
2023/07/12 03:17:33;;;;;;;2.50;0.80;;;;;;;20.01;76.26;100754.69;5032746;28;20045;-69
2023/07/12 03:20:00;;;;;;;3.83;1.38;;;;;;;19.92;77.39;100751.34;5032900;28;20049;-69
2023/07/12 03:22:27;;;;;;;1.50;0.80;;;;;;;20.03;76.69;100761.50;5028913;28;20050;-69
2023/07/12 03:24:55;;;;;;;1.88;0.70;;;;;;;20.32;75.43;100767.56;5012237;28;20050;-68
2023/07/12 03:27:22;;;;;;;2.60;1.08;;;;;;;20.56;74.33;100751.13;5005387;28;20056;-68
2023/07/12 03:29:50;;;;;;;2.70;1.00;;;;;;;20.69;72.32;100763.72;4996535;28;20046;-68
2023/07/12 03:32:17;;;;;;;3.63;1.00;;;;;;;20.88;71.00;100759.94;4997736;28;20057;-69
2023/07/12 03:34:44;;;;;;;4.55;1.20;;;;;;;20.78;70.61;100755.81;5012272;28;20050;-69
2023/07/12 03:37:12;;;;;;;3.10;1.00;;;;;;;20.88;70.82;100755.16;5000244;28;20058;-69
2023/07/12 03:39:39;;;;;;;2.63;0.98;;;;;;;20.82;70.38;100758.66;4992394;28;20054;-69
2023/07/12 03:42:07;;;;;;;3.55;1.13;;;;;;;20.65;70.14;100762.03;5000798;28;20058;-69
2023/07/12 03:44:34;;;;;;;3.75;1.00;;;;;;;20.53;70.44;100771.47;5012137;28;20401;-70
2023/07/12 03:47:02;;;;;;;5.35;1.52;;;;;;;20.70;69.21;100768.09;5026594;27;20066;-68
2023/07/12 03:49:29;;;;;;;4.20;1.10;;;;;;;20.86;68.02;100770.69;5010838;28;20113;-68
2023/07/12 03:51:56;;;;;;;8.13;1.40;;;;;;;21.12;65.44;100779.06;5011522;28;20062;-69
2023/07/12 03:54:24;;;;;;;5.55;1.77;;;;;;;21.01;65.85;100776.13;5011553;28;20057;-68
2023/07/12 03:56:52;;;;;;;7.35;1.63;;;;;;;20.66;67.02;100789.63;5011696;28;20053;-68
2023/07/12 03:59:20;;;;;;;4.80;1.60;;;;;;;20.76;66.63;100786.19;5011945;28;20050;-68
2023/07/12 04:01:47;;;;;;;6.93;1.63;;;;;;;20.62;65.82;100785.19;5012063;28;20050;-68
2023/07/12 04:04:15;;;;;;;8.43;1.60;;;;;;;20.46;66.49;100795.75;5010608;28;20404;-69
2023/07/12 04:06:42;;;;;;;8.52;1.98;;;;;;;19.90;68.84;100793.66;5011360;28;20060;-69
2023/07/12 04:09:10;;;;;;;10.90;2.08;;;;;;;20.06;69.58;100796.31;5023677;28;20045;-68
2023/07/12 04:11:38;;;;;;;7.68;1.70;;;;;;;19.48;71.33;100800.47;5023957;28;20049;-69
2023/07/12 04:14:06;;;;;;;5.90;1.33;;;;;;;19.54;71.01;100799.00;5011504;28;20061;-68
2023/07/12 04:16:33;;;;;;;5.85;1.77;;;;;;;19.66;70.93;100805.22;5011699;28;20053;-69
2023/07/12 04:19:01;;;;;;;6.00;1.35;;;;;;;19.97;70.80;100806.94;5010356;28;20054;-68
2023/07/12 04:21:28;;;;;;;8.50;1.70;;;;;;;19.86;70.31;100803.97;5026742;28;20160;-68
2023/07/12 04:23:55;;;;;;;8.43;1.77;;;;;;;19.97;70.08;100806.94;5011764;28;20058;-68
2023/07/12 04:26:23;;;;;;;4.35;1.45;;;;;;;20.10;69.86;100800.78;5024515;28;20042;-67
2023/07/12 04:28:51;;;;;;;5.93;1.33;;;;;;;20.32;69.19;100818.75;5030737;28;20045;-69
2023/07/12 04:31:20;;;;;;;8.93;1.90;;;;;;;20.40;68.60;100819.66;5030805;28;20057;-69
2023/07/12 04:33:48;;;;;;;9.73;1.92;;;;;;;20.25;67.98;100829.00;5008799;28;20637;-69
2023/07/12 04:36:17;;;;;;;9.98;1.95;;;;;;;19.18;70.73;100821.84;5009627;28;20046;-67
2023/07/12 04:38:44;;;;;;;4.97;1.45;;;;;;;18.85;72.41;100831.50;5009172;28;20062;-68
2023/07/12 04:41:12;;;;;;;7.03;1.63;;;;;;;19.32;71.43;100831.31;5011067;28;20745;-68
2023/07/12 04:43:39;;;;;;;11.45;2.17;;;;;;;19.66;70.28;100830.38;5008083;28;20038;-69
2023/07/12 04:46:07;;;;;;;8.43;2.10;;;;;;;19.74;69.67;100840.50;4991769;28;20065;-68
2023/07/12 04:48:34;;;;;;;9.45;1.70;;;;;;;19.51;71.08;100839.66;5028081;28;20070;-69
2023/07/12 04:51:03;;;;;;;8.70;2.08;;;;;;;19.89;69.67;100841.56;5065016;28;20409;-69
2023/07/12 04:53:32;;;;;;;9.18;2.28;;;;;;;19.67;69.88;100833.97;4993437;28;20057;-69
2023/07/12 04:56:00;;;;;;;11.07;2.30;;;;;;;19.52;70.22;100841.28;4990589;28;20042;-69
2023/07/12 04:58:27;;;;;;;9.45;2.03;;;;;;;19.63;70.36;100847.09;4991145;28;20054;-68
2023/07/12 05:00:55;;;;;;;7.78;1.65;;;;;;;18.95;71.43;100844.88;4993456;28;20042;-69
2023/07/12 05:03:24;;;;;;;7.63;2.00;;;;;;;18.80;72.78;100853.31;5011088;28;20053;-70
2023/07/12 05:05:52;;;;;;;10.50;2.42;;;;;;;18.59;74.64;100864.00;5009721;28;20057;-69
2023/07/12 05:08:19;;;;;;;11.60;2.33;;;;;;;18.71;74.15;100859.09;4999937;28;20053;-69
2023/07/12 05:10:47;;;;;;;6.20;1.63;;;;;;;18.87;73.93;100856.25;5028196;28;20061;-69
2023/07/12 05:13:14;;;;;;;9.00;2.10;;;;;;;19.29;71.38;100859.13;4991395;28;20527;-68
2023/07/12 05:15:49;;;;;;;10.05;2.08;;;;;;;18.86;73.05;100861.03;4991217;28;20058;-69
2023/07/12 05:18:17;;;;;;;14.18;2.28;;;;;;;18.64;72.81;100867.31;5004640;28;20055;-69
2023/07/12 05:20:45;;;;;;;8.32;1.90;;;;;;;18.62;73.88;100880.03;4990868;28;20061;-68
2023/07/12 05:23:12;;;;;;;8.88;1.98;;;;;;;18.67;73.39;100874.16;4991713;28;20061;-68
2023/07/12 05:25:50;;;;;;;11.45;2.20;;;;;;;18.91;72.35;100873.91;5004755;28;20512;-68
2023/07/12 05:28:19;;;;;;;8.02;1.83;;;;;;;19.15;72.09;100882.00;5030139;28;20045;-69
2023/07/12 05:30:48;;;;;;;9.82;1.90;;;;;;;19.54;70.20;100880.84;5018316;28;20054;-70
2023/07/12 05:33:15;;;;;;;10.95;2.03;;;;;;;19.75;68.17;100889.63;5010133;28;20058;-69
2023/07/12 05:35:43;;;;;;;10.48;1.77;;;;;;;19.34;68.83;100889.59;5025578;28;20052;-69
2023/07/12 05:38:10;;;;;;;8.98;2.15;;;;;;;19.04;70.08;100886.53;5011068;28;20054;-71
2023/07/12 05:40:38;;;;;;;7.65;2.17;;;;;;;19.03;69.64;100882.97;5011136;28;20060;-69
2023/07/12 05:43:05;;;;;;;6.53;2.08;;;;;;;19.05;69.25;100885.38;5010832;28;20060;-70
2023/07/12 05:45:32;;;;;;;8.60;2.60;;;;;;;19.06;70.25;100890.59;5010012;28;20062;-70
2023/07/12 05:48:00;;;;;;;9.40;2.33;;;;;;;19.37;69.27;100897.25;5008907;28;20778;-70
2023/07/12 05:50:27;;;;;;;8.32;1.83;;;;;;;19.72;67.84;100892.34;5007808;28;20069;-69
2023/07/12 05:52:54;;;;;;;8.45;2.00;;;;;;;19.73;67.12;100892.00;5010561;28;20046;-69
2023/07/12 05:55:22;;;;;;;7.78;2.00;;;;;;;19.76;67.39;100894.06;5009489;28;20056;-71
2023/07/12 05:57:50;;;;;;;15.13;2.30;;;;;;;20.20;66.70;100899.25;5006697;28;20178;-69
2023/07/12 06:00:18;;;;;;;6.55;1.80;;;;;;;20.41;64.31;100896.81;4991306;28;20069;-71
2023/07/12 06:02:45;;;;;;;7.45;1.67;;;;;;;20.28;64.93;100895.38;4990733;28;20050;-69
2023/07/12 06:05:13;;;;;;;13.80;1.95;;;;;;;20.33;64.55;100907.06;5050586;28;20406;-69
2023/07/12 06:07:41;;;;;;;8.70;1.90;;;;;;;20.39;63.83;100913.16;5112363;28;20048;-69
2023/07/12 06:10:09;;;;;;;8.52;2.13;;;;;;;20.16;64.69;100899.19;5005890;28;20047;-68
2023/07/12 06:12:37;;;;;;;9.65;2.10;;;;;;;20.42;64.63;100901.22;5024277;28;20076;-70
2023/07/12 06:15:05;;;;;;;9.25;1.92;;;;;;;20.60;62.51;100907.91;5030044;28;20507;-72
2023/07/12 06:17:32;;;;;;;11.85;1.55;;;;;;;20.64;63.12;100903.97;5029957;28;20388;-70
2023/07/12 06:20:00;;;;;;;8.77;1.98;;;;;;;20.77;61.67;100912.97;5029815;28;20057;-70
2023/07/12 06:22:27;;;;;;;8.30;1.73;;;;;;;20.73;61.80;100912.91;5028583;28;20064;-68
2023/07/12 06:24:55;;;;;;;7.43;1.75;;;;;;;20.41;62.27;100922.81;5024296;28;20054;-73
2023/07/12 06:27:22;;;;;;;7.43;1.52;;;;;;;20.15;63.80;100912.31;5043861;28;20060;-71
2023/07/12 06:29:49;;;;;;;10.70;2.13;;;;;;;20.26;64.08;100914.56;5000048;28;20038;-69
2023/07/12 06:32:17;;;;;;;9.85;1.92;;;;;;;20.71;62.63;100914.50;5011630;28;20054;-71
2023/07/12 06:34:45;;;;;;;7.88;1.67;;;;;;;20.34;62.69;100927.47;5008663;28;20061;-69
2023/07/12 06:37:12;;;;;;;9.18;1.85;;;;;;;20.39;63.12;100921.56;5003131;28;20039;-70
2023/07/12 06:39:40;;;;;;;11.52;2.22;;;;;;;20.82;61.44;100930.25;5002770;28;20059;-68
2023/07/12 06:42:08;;;;;;;8.38;1.65;;;;;;;20.75;60.54;100934.94;5008956;28;20049;-71
2023/07/12 06:44:36;;;;;;;8.25;1.70;;;;;;;20.89;60.12;100935.97;5008749;28;20053;-70
2023/07/12 06:47:04;;;;;;;8.60;1.85;;;;;;;20.80;58.97;100940.22;5102887;28;20059;-69
2023/07/12 06:49:32;;;;;;;10.07;1.88;;;;;;;20.92;59.62;100940.81;5071823;28;20046;-69
2023/07/12 06:51:59;;;;;;;7.13;1.58;;;;;;;21.00;57.40;100934.16;5008915;28;20046;-69
2023/07/12 06:54:27;;;;;;;9.00;2.03;;;;;;;20.98;56.94;100941.28;5004811;28;20053;-69
2023/07/12 06:56:55;;;;;;;10.25;1.63;;;;;;;20.98;56.71;100949.69;5014684;28;20089;-71
2023/07/12 06:59:23;;;;;;;12.90;1.98;;;;;;;21.05;56.33;100944.22;5004265;28;20053;-68
2023/07/12 07:01:51;;;;;;;7.18;1.77;;;;;;;20.70;57.59;100946.44;5004632;28;20054;-66
2023/07/12 07:04:18;;;;;;;9.20;1.80;;;;;;;20.78;57.87;100956.59;5017035;28;20061;-67
2023/07/12 07:06:46;;;;;;;5.50;1.40;;;;;;;20.75;57.81;100946.13;5007674;28;20056;-68
2023/07/12 07:09:13;;;;;;;8.63;1.52;;;;;;;20.64;58.05;100947.97;4999213;28;20058;-67
2023/07/12 07:11:41;;;;;;;5.57;1.70;;;;;;;20.85;57.90;100942.72;5001835;28;20796;-68
2023/07/12 07:14:08;;;;;;;7.82;1.67;;;;;;;20.85;57.21;100951.09;5000649;28;20061;-69
2023/07/12 07:16:36;;;;;;;8.70;1.85;;;;;;;20.83;57.46;100942.28;5001849;28;20077;-68
2023/07/12 07:19:03;;;;;;;8.05;1.63;;;;;;;20.92;56.59;100945.63;5001562;28;20050;-67
2023/07/12 07:21:31;;;;;;;8.50;1.83;;;;;;;21.05;56.61;100947.84;5003725;28;20449;-69
2023/07/12 07:23:58;;;;;;;16.08;2.20;;;;;;;20.83;57.17;100948.69;5003010;28;20052;-67
2023/07/12 07:26:26;;;;;;;10.18;1.95;;;;;;;20.31;58.58;100962.59;5006170;28;20053;-68
2023/07/12 07:28:53;;;;;;;10.93;1.52;;;;;;;20.71;57.77;100954.47;5001313;28;20054;-67
2023/07/12 07:31:20;;;;;;;9.35;2.08;;;;;;;20.74;57.33;100962.13;5008055;28;20073;-69
2023/07/12 07:33:48;;;;;;;8.73;1.83;;;;;;;21.10;56.85;100960.69;5005512;28;20061;-67
2023/07/12 07:36:15;;;;;;;8.35;1.90;;;;;;;21.14;56.65;100953.97;5002290;28;20520;-66
2023/07/12 07:38:43;;;;;;;8.90;1.80;;;;;;;21.28;55.72;100956.16;5016256;28;20050;-67
2023/07/12 07:41:14;;;;;;;11.00;1.88;;;;;;;21.06;54.92;100957.84;5011055;28;20046;-68
2023/07/12 07:43:44;;;;;;;8.73;1.90;;;;;;;21.03;56.03;100953.00;5019477;28;20053;-66
2023/07/12 07:46:13;;;;;;;10.23;1.90;;;;;;;21.38;54.87;100958.28;4999817;28;20069;-67
2023/07/12 07:48:41;;;;;;;6.78;1.38;;;;;;;21.92;52.80;100943.75;4999952;28;20046;-67
2023/07/12 07:51:09;;;;;;;8.05;1.42;;;;;;;21.94;51.93;100946.97;5006683;28;20049;-67
2023/07/12 07:53:36;;;;;;;8.60;1.77;;;;;;;22.44;51.51;100943.47;5005600;28;20080;-68
2023/07/12 07:56:06;;;;;;;6.93;1.42;;;;;;;22.27;51.56;100949.72;5001334;28;20057;-67
2023/07/12 07:58:35;;;;;;;9.65;1.67;;;;;;;22.30;51.34;100955.38;5003827;28;20050;-66
2023/07/12 08:01:03;;;;;;;8.30;1.70;;;;;;;22.61;50.85;100948.47;5007868;28;21649;-67
2023/07/12 08:03:30;;;;;;;14.82;2.10;;;;;;;22.57;50.13;100950.44;5004232;28;20541;-67
2023/07/12 08:06:03;;;;;;;7.97;1.70;;;;;;;21.02;54.58;100959.00;5004998;28;20540;-65
2023/07/12 08:08:33;;;;;;;8.23;1.80;;;;;;;21.80;52.91;100958.84;5009101;28;20054;-66
2023/07/12 08:11:05;;;;;;;6.53;1.23;;;;;;;21.31;53.38;100960.19;4992993;28;20266;-66
2023/07/12 08:13:34;;;;;;;9.05;1.40;;;;;;;21.39;53.59;100970.31;5000934;28;20068;-66
2023/07/12 08:16:01;;;;;;;7.68;1.60;;;;;;;21.48;53.62;100968.03;5002833;28;20064;-66
2023/07/12 08:18:29;;;;;;;7.88;1.45;;;;;;;21.31;52.87;100975.00;5011077;28;20027;-67
2023/07/12 08:20:57;;;;;;;9.80;1.30;;;;;;;21.08;53.67;100975.09;5003252;28;20061;-67
2023/07/12 08:23:25;;;;;;;9.10;1.67;;;;;;;21.71;52.21;100960.31;5014642;28;20038;-68
2023/07/12 08:25:53;;;;;;;7.95;1.73;;;;;;;21.98;51.07;100961.88;5007212;28;20054;-68
2023/07/12 08:28:20;;;;;;;9.38;1.60;;;;;;;21.90;50.98;100960.16;5006263;28;20061;-67
2023/07/12 08:30:48;;;;;;;7.38;1.58;;;;;;;22.08;50.31;100961.16;5007258;28;20508;-67
2023/07/12 08:33:16;;;;;;;10.60;1.40;;;;;;;21.21;52.88;100965.28;5007100;28;20050;-68
2023/07/12 08:35:43;;;;;;;7.55;1.75;;;;;;;21.78;51.72;100964.03;5007684;28;20061;-67
2023/07/12 08:38:16;;;;;;;8.73;1.70;;;;;;;21.78;51.33;100961.22;5006306;28;20066;-68
2023/07/12 08:40:49;;;;;;;8.68;1.67;;;;;;;21.94;51.16;100959.03;5004572;28;20041;-69
2023/07/12 08:43:21;;;;;;;7.60;1.85;;;;;;;22.48;50.69;100961.16;5002881;28;20496;-67
2023/07/12 08:45:50;;;;;;;6.43;1.48;;;;;;;22.74;48.70;100963.00;5019622;28;20046;-67
2023/07/12 08:48:20;;;;;;;6.63;2.08;;;;;;;22.50;49.09;100960.75;5000840;28;20053;-68
2023/07/12 08:50:49;;;;;;;7.53;1.60;;;;;;;21.98;49.86;100964.66;5000462;28;20050;-67
2023/07/12 08:53:19;;;;;;;10.70;2.08;;;;;;;21.48;51.44;100971.63;4998047;28;20381;-66
2023/07/12 08:55:48;;;;;;;6.30;1.50;;;;;;;21.73;50.19;100969.16;4994572;28;20054;-66
2023/07/12 08:58:23;;;;;;;5.85;1.30;;;;;;;22.18;48.67;100974.50;4994958;28;20117;-65
2023/07/12 09:01:00;;;;;;;7.10;1.33;;;;;;;21.29;50.55;100979.41;5000197;28;20053;-66
2023/07/12 09:03:28;;;;;;;6.78;2.00;;;;;;;20.83;51.58;100979.50;5007205;28;20073;-68
2023/07/12 09:05:55;;;;;;;5.22;1.50;;;;;;;21.19;50.99;100984.47;4999823;28;20042;-65
2023/07/12 09:08:35;;;;;;;7.30;1.60;;;;;;;21.69;50.04;100973.91;5001737;28;20051;-66
2023/07/12 09:11:03;;;;;;;5.95;1.40;;;;;;;21.92;49.34;100978.22;4981767;28;20054;-66
2023/07/12 09:13:38;;;;;;;5.93;1.10;;;;;;;22.22;48.95;100992.19;4993975;28;20045;-65
2023/07/12 09:16:20;;;;;;;4.82;1.48;;;;;;;21.83;49.19;100994.53;5004587;28;20049;-67
2023/07/12 09:18:52;;;;;;;10.23;1.70;;;;;;;21.99;48.86;100988.72;5003327;28;20065;-66
2023/07/12 09:21:22;;;;;;;6.03;1.10;;;;;;;21.94;47.67;100997.47;5002342;28;20061;-65
2023/07/12 09:23:52;;;;;;;5.65;1.17;;;;;;;21.97;46.68;100989.09;5003848;28;20057;-66
2023/07/12 09:26:28;;;;;;;7.20;1.40;;;;;;;22.54;45.21;100986.88;5002177;28;20058;-66
2023/07/12 09:29:04;;;;;;;5.60;1.50;;;;;;;22.59;45.92;100983.75;5000022;28;20052;-67
2023/07/12 09:31:34;;;;;;;4.75;1.45;;;;;;;22.22;47.50;100990.19;4997950;28;20175;-61
2023/07/12 09:34:09;;;;;;;6.63;1.30;;;;;;;22.22;46.80;100992.19;4999629;28;20416;-62
2023/07/12 09:36:39;;;;;;;8.27;1.30;;;;;;;22.44;45.38;100996.00;5003611;28;20065;-61
2023/07/12 09:39:09;;;;;;;5.93;1.38;;;;;;;22.48;44.45;101003.25;5000070;28;20064;-62
2023/07/12 09:41:47;;;;;;;10.00;1.30;;;;;;;22.54;44.47;100995.31;5016383;28;20488;-62
2023/07/12 09:44:17;;;;;;;7.22;1.42;;;;;;;22.20;45.27;100994.56;4999531;28;20046;-61
2023/07/12 09:46:53;;;;;;;5.50;1.17;;;;;;;22.32;45.26;101006.31;5003607;28;20046;-61
2023/07/12 09:49:32;;;;;;;7.57;1.20;;;;;;;22.33;44.72;100998.72;4990664;28;20054;-63
2023/07/12 09:52:17;;;;;;;4.60;1.27;;;;;;;22.43;45.24;100997.19;4999690;28;20185;-61
2023/07/12 09:55:07;;;;;;;8.25;1.45;;;;;;;22.54;45.22;100996.16;4981948;28;20413;-64
2023/07/12 09:57:55;;;;;;;8.48;1.85;;;;;;;22.78;45.26;100997.53;4999228;28;20049;-64
2023/07/12 10:00:40;;;;;;;4.53;1.38;;;;;;;22.72;44.83;100991.47;4994138;28;20042;-62
2023/07/12 10:03:14;;;;;;;8.45;1.35;;;;;;;22.41;44.95;101005.19;5002286;28;20428;-62
2023/07/12 10:05:48;;;;;;;6.40;1.85;;;;;;;22.29;45.85;101000.66;4999590;28;20061;-62
2023/07/12 10:08:19;;;;;;;5.72;1.70;;;;;;;22.45;45.48;101004.03;5003284;28;20404;-64
2023/07/12 10:11:13;;;;;;;8.63;1.67;;;;;;;22.59;43.70;100998.59;5001766;28;20412;-62
2023/07/12 10:13:46;;;;;;;7.78;1.27;;;;;;;22.87;43.25;100996.03;5000587;28;20583;-64
2023/07/12 10:16:18;;;;;;;6.03;1.40;;;;;;;21.95;43.53;101005.50;4986171;28;20050;-62
2023/07/12 10:18:46;;;;;;;9.13;4.05;;;;;;;22.02;44.62;101004.81;4999308;28;20042;-62
2023/07/12 10:21:17;;;;;;;25.33;16.35;;;;;;;22.06;43.74;100998.03;4996242;28;20048;-61
2023/07/12 10:24:00;;;;;;;22.85;14.15;;;;;;;22.47;42.95;100998.84;5000272;28;20046;-61
2023/07/12 10:26:28;;;;;;;11.50;5.85;;;;;;;22.73;43.35;100984.69;5009066;28;20100;-61
2023/07/12 10:28:55;;;;;;;12.85;5.85;;;;;;;23.11;42.23;100983.34;5008197;28;20052;-61
2023/07/12 10:31:32;;;;;;;10.02;4.40;;;;;;;22.96;42.99;100990.06;5004686;28;20394;-61
2023/07/12 10:34:31;;;;;;;13.25;4.00;;;;;;;23.08;42.77;100986.94;5004465;28;20046;-62
2023/07/12 10:37:24;;;;;;;16.20;4.50;;;;;;;22.71;42.61;100986.25;5003447;28;20424;-62
2023/07/12 10:39:52;;;;;;;9.07;3.95;;;;;;;22.86;42.56;100977.53;5021160;28;20085;-62
2023/07/12 10:42:34;;;;;;;8.40;4.07;;;;;;;23.33;42.00;100985.09;5009824;28;20050;-61
2023/07/12 10:45:04;;;;;;;9.13;3.42;;;;;;;23.43;41.56;100979.53;4997274;28;20053;-62
2023/07/12 10:47:34;;;;;;;9.18;3.00;;;;;;;23.49;41.78;100976.34;5005460;28;20061;-62
2023/07/12 10:50:07;;;;;;;14.65;8.60;;;;;;;23.87;41.44;100979.31;5000003;28;20046;-61
2023/07/12 10:53:02;;;;;;;19.67;9.35;;;;;;;23.73;40.30;100970.81;5005616;28;20047;-63
2023/07/12 10:56:04;;;;;;;14.50;8.25;;;;;;;23.76;40.75;100975.69;5006697;28;20455;-64
2023/07/12 10:58:55;;;;;;;11.32;3.25;;;;;;;23.62;40.16;100975.63;5005418;28;20062;-61
2023/07/12 11:01:41;;;;;;;6.65;3.13;;;;;;;23.93;39.41;100974.94;4998726;28;20069;-62
2023/07/12 11:04:15;;;;;;;10.60;4.20;;;;;;;24.27;39.36;100966.97;5006633;28;20660;-61
2023/07/12 11:07:17;;;;;;;14.02;6.50;;;;;;;24.46;39.09;100963.81;5007386;28;20050;-61
2023/07/12 11:09:47;;;;;;;7.95;3.63;;;;;;;24.52;38.55;100957.38;5016815;28;20523;-61
2023/07/12 11:12:15;;;;;;;;;;;;;;;24.76;38.75;100957.81;5005561;28;20050;-61
2023/07/12 11:14:49;;;;;;;6.25;2.47;;;;;;;25.01;38.92;100958.56;5001566;28;19936;-61
2023/07/12 11:17:22;;;;;;;4.28;1.65;;;;;;;24.73;37.06;100955.78;5017840;28;20050;-62
2023/07/12 11:20:03;;;;;;;6.70;2.00;;;;;;;23.97;38.78;100952.44;5002639;28;20054;-62
2023/07/12 11:22:51;;;;;;;5.15;2.05;;;;;;;23.25;39.62;100958.13;5004763;28;20050;-61
2023/07/12 11:25:24;;;;;;;7.03;1.77;;;;;;;23.52;39.35;100956.69;5006019;28;20053;-63
2023/07/12 11:27:56;;;;;;;4.45;1.80;;;;;;;23.76;39.48;100946.75;5004553;28;20588;-62
2023/07/12 11:30:36;;;;;;;27.10;3.30;;;;;;;23.98;39.19;100954.03;5019241;28;20050;-61
2023/07/12 11:33:27;;;;;;;7.63;2.80;;;;;;;24.05;38.59;100957.72;5007622;28;20501;-62
2023/07/12 11:35:59;;;;;;;7.78;2.70;;;;;;;23.57;39.65;100952.69;5004169;28;20061;-63
2023/07/12 11:38:29;;;;;;;6.80;2.63;;;;;;;23.39;39.49;100955.44;5004540;28;20062;-61
2023/07/12 11:41:03;;;;;;;8.55;2.88;;;;;;;23.67;39.49;100954.75;5007763;28;20062;-60
2023/07/12 11:43:34;;;;;;;7.68;2.42;;;;;;;23.79;38.40;100958.00;5006674;28;20053;-61
2023/07/12 11:46:04;;;;;;;7.93;2.22;;;;;;;24.22;37.78;100953.31;5010382;28;20049;-61
2023/07/12 11:48:33;;;;;;;10.30;3.85;;;;;;;23.97;38.16;100953.22;5007046;28;20084;-60